Airfield :
LOGIN :

Register | Disclaimer

   EN    FR    IT 

 










Legend :    VFR   Marginal VFR   IFR   Intensive IFR   Very Intensive IFR
Visi :
Ceiling :
>= 8 km
>= 3000ft
5 to 8 km
1000 to 3000 ft
1500m to 5 km
500 to 1000 ft
800 to 1500m
200 to 500 ft
< 800m
< 200 ft
Symbols :   Thunderstorms  Fog  Heavy snow  Heavy precipitations  Wind > 20 kt
SIGMETs :     Misc.  Thunderstorms  Icing  Turbulence  Mountain Waves  Volcanic Ashes






- Airport Elevation : 13 ft
- IATA code : CAG


LIEE - Cagliari Elmas

CURRENT METAR :
  • 281450Z 17010KT CAVOK 22/13 Q1022

EXPIRED METARs :
  • 281420Z 17010KT CAVOK 22/10 Q1023
  • 281350Z 17011KT CAVOK 23/11 Q1023
  • 281320Z 16011KT CAVOK 23/07 Q1023
  • 281250Z 16010KT 9999 FEW010 23/08 Q1024

TAF TAF LIEE
Valid from the 28 at 12:00 until the 29 at 12:00 UTC


281154Z 2812/2912 18012KT 9999 FEW030
BECMG 2816/2818 VRB05KT
BECMG 2908/2910 17012KT



MET'MAP, your aeronautical weather chart ! - Copyright ORBIFLY December 2007 - Disclaimer

ORBIFLY MET'MAP TEAM :

Programming & Development : Alexandra Zaïnal
Concept & original design : Baudouin d'Aumeries
Assistance for programming : Marc-Olivier Méhu
Technical & hardware support : Manuel Goepfert

Contact : metmap@orbifly.com




SOURCES & CREDITS :

   NOAA